Time;durP1;ratioP1;P1;durP2;ratioP2;P2;SDS_P1;SDS_P2;PMS_P1;PMS_P2;Temp;Humidity;BMP_temperature;BMP_pressure;BME280_temperature;BME280_humidity;BME280_pressure;Samples;Min_cycle;Max_cycle;Signal;HPM_P1;HPM_P2
2023/07/14 00:01:33;;;;;;;0.73;0.68;;;14.30;99.90;;;;;;4968528;28;20511;-76
2023/07/14 00:03:59;;;;;;;0.77;0.77;;;14.30;99.90;;;;;;4969478;28;20134;-76
2023/07/14 00:06:25;;;;;;;0.40;0.40;;;14.10;99.90;;;;;;4962970;28;20174;-76
2023/07/14 00:08:51;;;;;;;0.40;0.40;;;14.30;99.90;;;;;;4951277;28;20508;-77
2023/07/14 00:11:22;;;;;;;0.40;0.40;;;14.10;99.90;;;;;;4967405;28;20045;-76
2023/07/14 00:13:49;;;;;;;0.30;0.30;;;14.00;99.90;;;;;;4973001;28;20778;-76
2023/07/14 00:16:23;;;;;;;0.23;0.23;;;14.00;99.90;;;;;;4951864;28;20050;-76
2023/07/14 00:18:50;;;;;;;0.30;0.30;;;14.20;99.90;;;;;;4947084;28;20043;-76
2023/07/14 00:21:22;;;;;;;0.40;0.40;;;14.10;99.90;;;;;;4955861;28;20046;-76
2023/07/14 00:23:49;;;;;;;0.50;0.50;;;14.10;99.90;;;;;;4951621;28;20050;-76
2023/07/14 00:26:18;;;;;;;0.50;0.50;;;14.00;99.90;;;;;;4968599;28;20412;-76
2023/07/14 00:28:44;;;;;;;0.40;0.40;;;14.00;99.90;;;;;;4945731;28;20049;-76
2023/07/14 00:31:13;;;;;;;0.50;0.50;;;14.10;99.90;;;;;;4950340;28;20061;-77
2023/07/14 00:33:38;;;;;;;;;;;14.00;99.90;;;;;;4969150;28;20105;-76
2023/07/14 00:36:06;;;;;;;0.40;0.40;;;13.90;99.90;;;;;;4955178;28;19922;-76
2023/07/14 00:38:34;;;;;;;0.30;0.30;;;13.90;99.90;;;;;;4946572;28;20077;-76
2023/07/14 00:41:00;;;;;;;;;;;13.90;99.90;;;;;;4948358;28;20090;-76
2023/07/14 00:43:25;;;;;;;0.20;0.20;;;13.60;99.90;;;;;;4944011;28;20062;-76
2023/07/14 00:45:54;;;;;;;0.30;0.30;;;14.00;99.90;;;;;;4952337;28;20047;-76
2023/07/14 00:48:23;;;;;;;0.50;0.50;;;13.70;99.90;;;;;;4951330;28;20135;-76
2023/07/14 00:50:54;;;;;;;0.60;0.60;;;13.80;99.90;;;;;;4952706;28;20057;-76
2023/07/14 00:53:25;;;;;;;0.50;0.50;;;13.70;99.90;;;;;;4954058;28;20057;-76
2023/07/14 00:56:10;;;;;;;0.30;0.30;;;13.70;99.90;;;;;;4949566;28;20050;-76
2023/07/14 00:58:38;;;;;;;0.60;0.60;;;13.70;99.90;;;;;;4953201;28;20484;-76
2023/07/14 01:01:25;;;;;;;0.85;0.85;;;13.60;99.90;;;;;;4953105;28;20058;-76
2023/07/14 01:03:55;;;;;;;0.45;0.45;;;13.60;99.90;;;;;;4947637;28;20512;-76
2023/07/14 01:06:39;;;;;;;0.40;0.40;;;13.50;99.90;;;;;;4961986;28;20519;-76
2023/07/14 01:09:09;;;;;;;0.43;0.43;;;13.40;99.90;;;;;;4969723;28;20054;-77
2023/07/14 01:11:45;;;;;;;0.30;0.30;;;13.40;99.90;;;;;;4950041;28;20043;-76
2023/07/14 01:14:30;;;;;;;0.40;0.40;;;13.50;99.90;;;;;;4964708;28;20043;-76
2023/07/14 01:16:58;;;;;;;0.40;0.40;;;13.60;99.90;;;;;;4968250;28;20089;-76
2023/07/14 01:19:45;;;;;;;0.77;0.77;;;13.50;99.90;;;;;;4969603;28;20047;-76
2023/07/14 01:22:23;;;;;;;0.40;0.40;;;13.40;99.90;;;;;;4952145;28;20464;-76
2023/07/14 01:25:08;;;;;;;0.33;0.33;;;13.20;99.90;;;;;;4964607;28;20129;-76
2023/07/14 01:27:34;;;;;;;0.60;0.60;;;13.30;99.90;;;;;;4969745;28;20097;-76
2023/07/14 01:30:06;;;;;;;1.27;1.05;;;13.30;99.90;;;;;;4947286;28;20054;-76
2023/07/14 01:32:36;;;;;;;0.40;0.40;;;13.40;99.90;;;;;;4964291;28;20046;-76
2023/07/14 01:35:05;;;;;;;0.40;0.40;;;13.20;99.90;;;;;;4970010;28;20050;-76
2023/07/14 01:37:35;;;;;;;0.40;0.40;;;13.20;99.90;;;;;;4950794;28;20058;-76
2023/07/14 01:40:00;;;;;;;0.50;0.50;;;13.40;99.90;;;;;;4965527;28;20568;-76
2023/07/14 01:42:26;;;;;;;0.32;0.32;;;13.30;99.90;;;;;;4960708;28;20169;-76
2023/07/14 01:44:52;;;;;;;0.40;0.40;;;13.20;99.90;;;;;;4945174;28;20038;-76
2023/07/14 01:47:19;;;;;;;0.70;0.70;;;13.00;99.90;;;;;;4945560;28;20074;-77
2023/07/14 01:49:50;;;;;;;0.85;0.40;;;13.10;99.90;;;;;;4963101;28;20043;-76
2023/07/14 01:52:24;;;;;;;0.60;0.60;;;13.10;99.90;;;;;;4964841;28;20069;-76
2023/07/14 01:55:04;;;;;;;0.52;0.52;;;13.10;99.90;;;;;;4969277;28;20050;-76
2023/07/14 01:57:34;;;;;;;0.40;0.40;;;13.00;99.90;;;;;;4951264;28;20085;-76
2023/07/14 02:00:05;;;;;;;0.52;0.52;;;13.00;99.90;;;;;;4941142;28;20047;-76
2023/07/14 02:02:34;;;;;;;0.30;0.30;;;12.80;99.90;;;;;;4944495;28;20050;-76
2023/07/14 02:05:05;;;;;;;0.60;0.60;;;12.90;99.90;;;;;;4942702;28;20158;-76
2023/07/14 02:07:32;;;;;;;0.40;0.40;;;12.90;99.90;;;;;;4950810;28;20059;-76
2023/07/14 02:09:57;;;;;;;0.77;0.77;;;12.80;99.90;;;;;;4946280;28;20058;-76
2023/07/14 02:12:31;;;;;;;0.55;0.55;;;12.90;99.90;;;;;;4940686;28;20039;-76
2023/07/14 02:15:09;;;;;;;0.35;0.35;;;12.90;99.90;;;;;;4947278;28;20050;-76
2023/07/14 02:17:37;;;;;;;0.30;0.30;;;12.90;99.90;;;;;;4950375;28;20050;-76
2023/07/14 02:20:10;;;;;;;0.40;0.40;;;12.80;99.90;;;;;;4949644;28;20043;-76
2023/07/14 02:22:37;;;;;;;0.52;0.52;;;12.70;99.90;;;;;;4950801;28;20043;-76
2023/07/14 02:25:07;;;;;;;0.50;0.50;;;12.80;99.90;;;;;;4951083;28;20063;-76
2023/07/14 02:27:32;;;;;;;0.40;0.40;;;12.70;99.90;;;;;;4974085;28;20578;-76
2023/07/14 02:30:12;;;;;;;0.50;0.50;;;12.90;99.90;;;;;;4955129;28;20137;-76
2023/07/14 02:32:44;;;;;;;0.30;0.30;;;12.60;99.90;;;;;;4951012;28;20122;-76
2023/07/14 02:35:34;;;;;;;0.40;0.40;;;12.80;99.90;;;;;;4967877;28;20063;-76
2023/07/14 02:38:12;;;;;;;0.55;0.55;;;12.60;99.90;;;;;;4949279;28;20130;-76
2023/07/14 02:40:47;;;;;;;0.40;0.40;;;12.70;99.90;;;;;;4955254;28;20046;-76
2023/07/14 02:43:16;;;;;;;0.35;0.35;;;12.60;99.90;;;;;;4972049;28;20125;-76
2023/07/14 02:46:16;;;;;;;0.60;0.60;;;12.50;99.90;;;;;;4955198;28;20408;-76
2023/07/14 02:48:45;;;;;;;0.40;0.40;;;12.50;99.90;;;;;;4947346;28;20046;-75
2023/07/14 02:51:11;;;;;;;0.60;0.60;;;12.60;99.90;;;;;;4970226;28;20047;-75
2023/07/14 02:53:37;;;;;;;0.55;0.55;;;12.70;99.90;;;;;;4954590;28;20146;-75
2023/07/14 02:56:03;;;;;;;0.40;0.40;;;12.80;99.90;;;;;;4970213;28;20062;-76
2023/07/14 02:58:30;;;;;;;1.02;0.95;;;12.80;99.90;;;;;;4952765;28;20550;-76
2023/07/14 03:00:55;;;;;;;0.63;0.63;;;13.00;99.90;;;;;;4977014;28;20094;-75
2023/07/14 03:03:21;;;;;;;0.55;0.55;;;12.70;99.90;;;;;;4972320;28;20466;-76
2023/07/14 03:05:50;;;;;;;0.50;0.50;;;12.90;99.90;;;;;;4968343;28;20043;-75
2023/07/14 03:08:17;;;;;;;0.40;0.40;;;12.80;99.90;;;;;;4969650;28;20122;-75
2023/07/14 03:10:44;;;;;;;0.40;0.40;;;13.00;99.90;;;;;;4974665;28;20043;-75
2023/07/14 03:13:11;;;;;;;0.40;0.40;;;12.80;99.90;;;;;;4946554;28;20059;-76
2023/07/14 03:15:37;;;;;;;0.60;0.60;;;12.90;99.90;;;;;;4948324;28;20038;-75
2023/07/14 03:18:03;;;;;;;0.40;0.40;;;12.90;99.90;;;;;;4972935;28;20105;-75
2023/07/14 03:20:29;;;;;;;0.60;0.60;;;12.70;99.90;;;;;;4954933;28;20085;-76
2023/07/14 03:22:55;;;;;;;0.50;0.50;;;12.90;99.90;;;;;;4952049;28;20074;-76
2023/07/14 03:25:21;;;;;;;0.30;0.30;;;12.90;99.90;;;;;;4967716;28;20415;-74
2023/07/14 03:27:54;;;;;;;0.65;0.65;;;12.90;99.90;;;;;;4943053;28;20042;-75
2023/07/14 03:30:19;;;;;;;0.40;0.40;;;12.80;99.90;;;;;;4940662;28;20130;-76
2023/07/14 03:32:45;;;;;;;0.70;0.70;;;13.00;99.90;;;;;;4953522;28;20496;-76
2023/07/14 03:35:11;;;;;;;0.30;0.30;;;13.10;99.90;;;;;;4955288;28;20057;-76
2023/07/14 03:37:38;;;;;;;0.40;0.40;;;12.80;99.90;;;;;;4971299;28;20049;-76
2023/07/14 03:40:05;;;;;;;0.50;0.50;;;12.90;99.90;;;;;;4949628;28;20110;-78
2023/07/14 03:42:32;;;;;;;0.30;0.30;;;12.90;99.90;;;;;;4948466;28;20055;-77
2023/07/14 03:44:57;;;;;;;0.47;0.47;;;12.90;99.90;;;;;;4953821;28;20074;-77
2023/07/14 03:47:23;;;;;;;0.73;0.73;;;12.90;99.90;;;;;;4947981;28;20039;-77
2023/07/14 03:49:49;;;;;;;0.40;0.40;;;12.90;99.90;;;;;;4954365;28;20499;-77
2023/07/14 03:52:14;;;;;;;0.55;0.55;;;13.00;99.90;;;;;;4953351;28;20552;-76
2023/07/14 03:54:40;;;;;;;0.82;0.82;;;13.00;99.90;;;;;;4954478;28;20487;-76
2023/07/14 03:57:05;;;;;;;1.85;1.20;;;12.80;99.90;;;;;;4964636;28;20047;-76
2023/07/14 03:59:31;;;;;;;0.40;0.40;;;12.70;99.90;;;;;;4944449;28;20047;-76
2023/07/14 04:01:57;;;;;;;0.35;0.35;;;12.70;99.90;;;;;;4946619;28;20381;-76
2023/07/14 04:04:23;;;;;;;0.30;0.30;;;12.80;99.90;;;;;;4966156;28;20050;-75
2023/07/14 04:06:49;;;;;;;0.30;0.30;;;12.80;99.90;;;;;;4966987;28;20053;-76
2023/07/14 04:09:15;;;;;;;0.75;0.68;;;12.70;99.90;;;;;;4969956;28;20101;-76
2023/07/14 04:11:40;;;;;;;0.55;0.55;;;12.80;99.90;;;;;;4970207;28;20496;-76
2023/07/14 04:14:07;;;;;;;0.40;0.40;;;12.80;99.90;;;;;;4951523;28;20134;-76
2023/07/14 04:16:35;;;;;;;0.65;0.40;;;12.60;99.90;;;;;;4965848;28;20137;-76
2023/07/14 04:19:02;;;;;;;0.40;0.40;;;12.80;99.90;;;;;;4954318;28;20074;-76
2023/07/14 04:21:27;;;;;;;1.58;1.48;;;12.70;99.90;;;;;;4964571;28;20118;-76
2023/07/14 04:23:57;;;;;;;0.50;0.50;;;12.80;99.90;;;;;;4970580;28;20063;-76
2023/07/14 04:26:25;;;;;;;0.43;0.43;;;12.90;99.90;;;;;;4941076;28;20062;-76
2023/07/14 04:28:50;;;;;;;0.75;0.75;;;12.80;99.90;;;;;;4947911;28;20102;-76
2023/07/14 04:31:17;;;;;;;0.80;0.77;;;12.80;99.90;;;;;;4947342;28;20051;-75
2023/07/14 04:33:44;;;;;;;0.85;0.85;;;12.90;99.90;;;;;;4944931;28;20054;-76
2023/07/14 04:36:10;;;;;;;0.40;0.40;;;12.90;99.90;;;;;;4948730;28;20047;-76
2023/07/14 04:38:36;;;;;;;0.68;0.68;;;13.00;99.90;;;;;;4948059;28;20039;-76
2023/07/14 04:41:02;;;;;;;0.60;0.60;;;12.90;99.90;;;;;;4946589;28;20098;-76
2023/07/14 04:43:28;;;;;;;1.05;0.70;;;13.00;99.90;;;;;;4950916;28;20047;-76
2023/07/14 04:45:54;;;;;;;0.30;0.30;;;13.00;99.90;;;;;;4944532;28;20043;-76
2023/07/14 04:48:24;;;;;;;0.40;0.40;;;13.00;99.90;;;;;;4946579;28;20035;-76
2023/07/14 04:50:50;;;;;;;0.55;0.55;;;13.10;99.90;;;;;;4951179;28;20377;-76
2023/07/14 04:53:17;;;;;;;0.63;0.63;;;13.00;99.90;;;;;;4946706;28;20734;-76
2023/07/14 04:55:46;;;;;;;0.40;0.40;;;13.10;99.90;;;;;;4941294;28;20047;-76
2023/07/14 04:58:14;;;;;;;0.40;0.40;;;13.10;99.90;;;;;;4940161;28;20043;-76
2023/07/14 05:00:41;;;;;;;0.40;0.40;;;13.20;99.90;;;;;;4945769;28;20094;-76
2023/07/14 05:03:08;;;;;;;0.60;0.60;;;13.10;99.90;;;;;;4947932;28;20047;-76
2023/07/14 05:05:34;;;;;;;0.60;0.60;;;13.20;99.90;;;;;;4939555;28;20094;-76
2023/07/14 05:08:01;;;;;;;0.50;0.50;;;13.10;99.90;;;;;;4950062;28;20587;-77
2023/07/14 05:10:27;;;;;;;0.50;0.50;;;13.50;99.90;;;;;;4954954;28;20048;-76
2023/07/14 05:12:55;;;;;;;0.52;0.52;;;13.40;99.90;;;;;;4939371;28;20130;-76
2023/07/14 05:15:22;;;;;;;0.30;0.30;;;13.50;99.90;;;;;;4942537;28;20043;-76
2023/07/14 05:17:48;;;;;;;0.65;0.65;;;13.80;99.90;;;;;;4949185;28;20047;-76
2023/07/14 05:20:16;;;;;;;3.80;1.13;;;13.80;99.90;;;;;;4948470;28;20039;-76
2023/07/14 05:22:45;;;;;;;0.55;0.55;;;13.90;99.90;;;;;;4947110;28;20059;-75
2023/07/14 05:25:12;;;;;;;0.52;0.45;;;14.00;99.90;;;;;;4959706;28;20069;-76
2023/07/14 05:27:38;;;;;;;0.50;0.50;;;14.10;99.90;;;;;;4970952;28;20130;-76
2023/07/14 05:30:06;;;;;;;0.45;0.45;;;14.20;99.90;;;;;;4968770;28;20050;-76
2023/07/14 05:32:32;;;;;;;1.17;0.80;;;14.40;99.90;;;;;;4944928;28;20617;-76
2023/07/14 05:34:58;;;;;;;0.70;0.70;;;14.50;99.90;;;;;;4969507;28;20082;-76
2023/07/14 05:37:24;;;;;;;0.43;0.43;;;14.60;99.90;;;;;;4954105;28;20046;-76
2023/07/14 05:39:50;;;;;;;0.35;0.35;;;15.10;99.90;;;;;;4975014;28;20419;-77
2023/07/14 05:42:16;;;;;;;0.38;0.38;;;14.90;99.90;;;;;;4947822;28;20042;-78
2023/07/14 05:44:42;;;;;;;0.40;0.40;;;15.10;99.90;;;;;;4952170;28;20039;-77
2023/07/14 05:47:08;;;;;;;0.25;0.25;;;15.10;99.90;;;;;;4970526;28;20050;-77
2023/07/14 05:49:34;;;;;;;0.60;0.60;;;15.20;99.90;;;;;;4929986;28;20059;-77
2023/07/14 05:51:59;;;;;;;0.40;0.40;;;15.20;99.90;;;;;;4950525;28;20125;-77
2023/07/14 05:54:25;;;;;;;1.13;1.02;;;15.40;99.90;;;;;;4951831;28;20050;-77
2023/07/14 05:56:51;;;;;;;0.45;0.45;;;15.40;99.90;;;;;;4962574;28;20045;-77
2023/07/14 05:59:19;;;;;;;0.43;0.43;;;15.50;99.90;;;;;;4969424;28;20047;-76
2023/07/14 06:01:48;;;;;;;0.40;0.40;;;15.50;99.90;;;;;;4951457;28;20543;-77
2023/07/14 06:04:15;;;;;;;0.70;0.70;;;15.70;99.90;;;;;;4945165;28;20066;-77
2023/07/14 06:06:41;;;;;;;0.68;0.68;;;15.80;99.90;;;;;;4967913;28;20042;-77
2023/07/14 06:09:07;;;;;;;0.75;0.75;;;15.80;99.90;;;;;;4962313;28;20050;-78
2023/07/14 06:11:33;;;;;;;0.20;0.20;;;15.70;99.90;;;;;;4946080;28;20130;-77
2023/07/14 06:13:59;;;;;;;0.57;0.57;;;15.90;99.90;;;;;;4963289;28;20118;-78
2023/07/14 06:16:24;;;;;;;0.90;0.90;;;16.00;99.90;;;;;;4935660;28;20043;-78
2023/07/14 06:18:51;;;;;;;0.82;0.82;;;15.90;99.90;;;;;;4949887;28;20702;-77
2023/07/14 06:21:18;;;;;;;0.60;0.60;;;16.00;99.90;;;;;;4969651;28;20050;-78
2023/07/14 06:23:44;;;;;;;1.00;1.00;;;16.30;99.90;;;;;;4949192;28;20047;-77
2023/07/14 06:26:10;;;;;;;0.65;0.65;;;16.10;99.90;;;;;;4947511;28;20089;-77
2023/07/14 06:28:36;;;;;;;0.60;0.60;;;16.30;99.90;;;;;;4952496;28;20043;-77
2023/07/14 06:31:04;;;;;;;0.65;0.65;;;16.40;99.90;;;;;;4951770;28;20093;-77
2023/07/14 06:33:30;;;;;;;1.88;0.95;;;16.30;99.90;;;;;;4949560;28;20105;-78
2023/07/14 06:35:57;;;;;;;0.43;0.43;;;16.70;99.90;;;;;;4968767;28;20117;-77
2023/07/14 06:38:24;;;;;;;0.40;0.40;;;16.50;99.90;;;;;;4950551;28;20478;-77
2023/07/14 06:41:03;;;;;;;0.68;0.68;;;16.80;99.90;;;;;;4950160;28;20408;-77
2023/07/14 06:43:31;;;;;;;0.63;0.63;;;16.60;99.90;;;;;;4948141;28;20054;-77
2023/07/14 06:45:57;;;;;;;0.73;0.70;;;16.80;99.90;;;;;;4949597;28;20415;-77
2023/07/14 06:48:24;;;;;;;0.40;0.40;;;16.90;99.90;;;;;;4947553;28;20039;-77
2023/07/14 06:50:50;;;;;;;3.25;1.30;;;17.20;99.90;;;;;;4932835;28;20038;-78
2023/07/14 06:53:16;;;;;;;0.52;0.52;;;17.30;99.90;;;;;;4948538;28;20054;-78
2023/07/14 06:55:43;;;;;;;0.77;0.77;;;17.50;99.90;;;;;;4934882;28;20154;-78
2023/07/14 06:58:09;;;;;;;0.50;0.50;;;17.70;99.90;;;;;;4947565;28;20058;-78
2023/07/14 07:00:35;;;;;;;0.55;0.55;;;18.00;99.90;;;;;;4951280;28;20150;-78
2023/07/14 07:03:03;;;;;;;1.85;1.38;;;18.40;99.90;;;;;;4950172;28;20046;-78
2023/07/14 07:05:30;;;;;;;1.58;1.48;;;18.40;99.90;;;;;;4944116;28;20150;-78
2023/07/14 07:07:56;;;;;;;0.70;0.50;;;18.70;99.90;;;;;;4944208;28;20108;-79
2023/07/14 07:10:22;;;;;;;1.60;1.42;;;18.90;99.90;;;;;;4953827;28;20859;-78
2023/07/14 07:12:48;;;;;;;0.40;0.40;;;19.00;99.90;;;;;;4952156;28;20511;-79
2023/07/14 07:15:14;;;;;;;0.35;0.35;;;19.30;99.90;;;;;;4954625;28;20132;-79
2023/07/14 07:17:42;;;;;;;0.70;0.70;;;19.60;99.90;;;;;;4955975;28;20035;-78
2023/07/14 07:20:09;;;;;;;0.95;0.95;;;19.90;99.90;;;;;;4955005;28;20913;-78
2023/07/14 07:22:36;;;;;;;0.40;0.40;;;20.10;99.90;;;;;;4951816;28;20766;-78
2023/07/14 07:25:02;;;;;;;0.32;0.32;;;20.40;99.90;;;;;;4965203;28;20066;-78
2023/07/14 07:27:29;;;;;;;1.67;1.55;;;20.40;99.90;;;;;;4957615;28;20054;-78
2023/07/14 07:29:54;;;;;;;0.57;0.57;;;20.60;99.90;;;;;;4956768;28;20412;-78
2023/07/14 07:32:20;;;;;;;1.40;1.02;;;20.50;99.90;;;;;;4955150;28;20046;-78
2023/07/14 07:34:47;;;;;;;0.50;0.50;;;20.70;99.90;;;;;;4947446;28;20039;-77
2023/07/14 07:37:13;;;;;;;0.68;0.68;;;20.80;99.90;;;;;;4935955;28;20083;-78
2023/07/14 07:39:39;;;;;;;0.77;0.77;;;20.90;99.90;;;;;;4952373;28;20080;-78
2023/07/14 07:42:07;;;;;;;2.40;1.00;;;21.20;99.90;;;;;;4956173;28;20054;-79
2023/07/14 07:44:36;;;;;;;1.80;1.33;;;21.30;99.90;;;;;;4959225;28;20050;-79
2023/07/14 07:47:03;;;;;;;1.35;1.08;;;21.20;99.90;;;;;;4956469;28;20050;-79
2023/07/14 07:49:29;;;;;;;0.40;0.40;;;21.50;99.90;;;;;;4949560;28;20043;-79
2023/07/14 07:51:55;;;;;;;0.50;0.50;;;21.60;99.90;;;;;;4935467;28;20047;-79
2023/07/14 07:54:21;;;;;;;0.60;0.60;;;21.80;99.90;;;;;;4952361;28;20393;-79
2023/07/14 07:56:47;;;;;;;1.10;0.65;;;22.10;99.90;;;;;;4932796;28;20042;-80
2023/07/14 07:59:15;;;;;;;0.32;0.32;;;21.90;99.90;;;;;;4957676;28;20495;-79
2023/07/14 08:01:42;;;;;;;0.68;0.68;;;22.10;99.90;;;;;;4935428;28;20125;-80
2023/07/14 08:04:08;;;;;;;0.35;0.35;;;22.20;99.90;;;;;;4950211;28;20043;-79
2023/07/14 08:06:36;;;;;;;0.57;0.57;;;22.10;99.90;;;;;;4950131;28;20034;-79
2023/07/14 08:09:03;;;;;;;0.60;0.60;;;22.10;99.90;;;;;;4953550;28;20054;-79
2023/07/14 08:11:30;;;;;;;1.33;1.25;;;22.00;99.90;;;;;;4949993;28;20500;-79
2023/07/14 08:13:58;;;;;;;0.65;0.65;;;21.90;99.90;;;;;;4954054;28;20776;-79
2023/07/14 08:16:24;;;;;;;0.30;0.30;;;21.80;99.90;;;;;;4947288;28;20170;-81
2023/07/14 08:18:50;;;;;;;0.68;0.68;;;21.90;99.90;;;;;;4938741;28;20050;-79
2023/07/14 08:21:17;;;;;;;0.80;0.80;;;21.80;99.90;;;;;;4963257;28;20043;-80
2023/07/14 08:23:42;;;;;;;0.88;0.88;;;21.80;99.90;;;;;;4945538;28;20083;-79
2023/07/14 08:26:08;;;;;;;0.82;0.82;;;21.70;99.90;;;;;;4949720;28;20058;-79
2023/07/14 08:28:34;;;;;;;0.70;0.70;;;21.80;99.90;;;;;;4951399;28;20074;-79
2023/07/14 08:31:08;;;;;;;0.60;0.60;;;21.90;99.90;;;;;;4949301;28;20085;-79
2023/07/14 08:33:35;;;;;;;0.70;0.70;;;22.00;99.90;;;;;;4944738;28;20050;-78
2023/07/14 08:36:03;;;;;;;0.95;0.90;;;22.10;99.90;;;;;;4947789;28;20446;-79
2023/07/14 08:38:31;;;;;;;0.77;0.77;;;22.20;99.90;;;;;;4947003;28;20054;-78
2023/07/14 08:41:04;;;;;;;0.47;0.47;;;22.00;99.90;;;;;;4949871;28;20054;-78
2023/07/14 08:43:43;;;;;;;0.73;0.73;;;22.00;99.90;;;;;;4964580;28;20050;-78
2023/07/14 08:46:34;;;;;;;0.50;0.50;;;21.90;99.90;;;;;;4940607;28;20049;-79
2023/07/14 08:49:04;;;;;;;0.73;0.73;;;22.10;99.90;;;;;;4951424;28;20046;-78
2023/07/14 08:51:40;;;;;;;0.50;0.50;;;22.30;99.90;;;;;;4971395;28;20035;-78
2023/07/14 08:54:15;;;;;;;1.33;0.95;;;22.20;99.90;;;;;;4947833;28;20088;-78
2023/07/14 08:56:41;;;;;;;0.75;0.75;;;22.30;99.90;;;;;;4950975;28;20068;-78
2023/07/14 08:59:20;;;;;;;1.40;1.00;;;22.30;99.90;;;;;;4946212;28;20488;-78
2023/07/14 09:01:53;;;;;;;1.42;1.42;;;22.30;99.90;;;;;;4949302;28;20051;-77
2023/07/14 09:04:36;;;;;;;0.40;0.40;;;22.30;99.90;;;;;;4952201;28;20147;-78
2023/07/14 09:07:01;;;;;;;3.40;0.93;;;22.40;99.90;;;;;;4962257;28;20074;-77
2023/07/14 09:09:31;;;;;;;0.57;0.57;;;22.40;99.90;;;;;;4968423;28;20070;-77
2023/07/14 09:12:21;;;;;;;1.05;1.05;;;22.20;99.90;;;;;;4952150;28;20524;-77
2023/07/14 09:15:07;;;;;;;1.02;1.02;;;22.50;99.90;;;;;;4968877;28;20053;-77
2023/07/14 09:17:36;;;;;;;0.80;0.80;;;22.70;99.90;;;;;;4937074;28;20154;-77
2023/07/14 09:20:20;;;;;;;1.05;0.73;;;22.60;99.90;;;;;;4964952;28;20078;-77
2023/07/14 09:23:03;;;;;;;0.40;0.40;;;22.50;99.90;;;;;;4944378;28;20055;-77
2023/07/14 09:25:37;;;;;;;0.80;0.80;;;22.40;99.90;;;;;;4967819;28;20050;-77
2023/07/14 09:28:09;;;;;;;0.40;0.40;;;22.20;99.90;;;;;;4962982;28;20053;-77
2023/07/14 09:30:35;;;;;;;0.68;0.68;;;22.30;99.90;;;;;;4968823;28;20056;-77
2023/07/14 09:33:03;;;;;;;0.30;0.30;;;22.10;99.90;;;;;;4949595;28;20055;-77
2023/07/14 09:35:30;;;;;;;0.70;0.70;;;21.90;99.90;;;;;;4947675;28;20053;-77
2023/07/14 09:38:07;;;;;;;0.60;0.60;;;21.90;99.90;;;;;;4962561;28;20035;-76
2023/07/14 09:40:36;;;;;;;0.60;0.60;;;21.70;99.90;;;;;;4948157;28;20074;-78
2023/07/14 09:43:03;;;;;;;0.50;0.50;;;21.80;99.90;;;;;;4961442;28;20050;-77
2023/07/14 09:45:34;;;;;;;3.20;1.42;;;21.90;99.90;;;;;;4956440;28;20050;-77
2023/07/14 09:48:09;;;;;;;1.05;1.05;;;21.90;99.90;;;;;;4951991;28;20043;-76
2023/07/14 09:50:37;;;;;;;0.32;0.32;;;21.90;99.90;;;;;;4969746;28;20039;-76
2023/07/14 09:53:06;;;;;;;1.27;0.80;;;22.10;99.90;;;;;;4961933;28;20051;-77
2023/07/14 09:55:50;;;;;;;0.50;0.50;;;22.30;99.90;;;;;;4948082;28;20090;-76
2023/07/14 09:58:20;;;;;;;0.50;0.50;;;22.70;99.90;;;;;;4965276;28;20058;-77
2023/07/14 10:00:49;;;;;;;0.98;0.90;;;23.00;99.90;;;;;;4965029;28;20050;-78
2023/07/14 10:03:18;;;;;;;1.05;1.02;;;23.10;99.90;;;;;;4967435;28;20569;-77
2023/07/14 10:05:58;;;;;;;1.55;1.45;;;23.10;99.90;;;;;;4964630;28;20093;-77
2023/07/14 10:08:25;;;;;;;0.80;0.80;;;23.10;99.90;;;;;;4950328;28;20054;-76
2023/07/14 10:10:51;;;;;;;0.73;0.73;;;23.40;99.90;;;;;;4947863;28;20444;-77
2023/07/14 10:13:22;;;;;;;0.95;0.95;;;23.50;99.90;;;;;;4946191;28;20050;-76
2023/07/14 10:16:07;;;;;;;0.65;0.65;;;23.60;99.90;;;;;;4948256;28;20122;-76
2023/07/14 10:18:55;;;;;;;0.40;0.40;;;23.60;99.90;;;;;;4960832;28;20423;-75
2023/07/14 10:21:27;;;;;;;1.35;0.85;;;23.50;99.90;;;;;;4964040;28;20046;-76
2023/07/14 10:24:16;;;;;;;0.68;0.68;;;23.30;99.90;;;;;;4951881;28;20556;-76
2023/07/14 10:26:54;;;;;;;0.93;0.93;;;23.20;99.90;;;;;;4938702;28;20098;-76
2023/07/14 10:29:22;;;;;;;0.52;0.52;;;23.20;99.90;;;;;;4967976;28;20057;-76
2023/07/14 10:32:03;;;;;;;0.85;0.85;;;23.20;99.90;;;;;;4969354;28;20101;-76
2023/07/14 10:34:53;;;;;;;0.70;0.70;;;23.30;99.90;;;;;;4969287;28;20050;-75
2023/07/14 10:37:28;;;;;;;0.50;0.50;;;23.50;99.90;;;;;;4965401;28;20054;-76
2023/07/14 10:40:17;;;;;;;0.75;0.75;;;23.50;99.90;;;;;;4952165;28;20047;-76
2023/07/14 10:43:13;;;;;;;0.68;0.68;;;23.60;99.90;;;;;;4949326;28;20093;-76
2023/07/14 10:45:42;;;;;;;0.63;0.63;;;23.80;99.90;;;;;;4949900;28;20047;-76
2023/07/14 10:48:17;;;;;;;1.88;1.77;;;23.90;99.90;;;;;;4949787;28;20046;-75
2023/07/14 10:50:58;;;;;;;0.70;0.70;;;24.20;99.90;;;;;;4968845;28;20064;-76
2023/07/14 10:53:42;;;;;;;1.13;1.13;;;24.50;99.90;;;;;;4961097;28;20043;-76
2023/07/14 10:56:30;;;;;;;0.55;0.55;;;24.90;99.90;;;;;;4951864;28;20054;-76
2023/07/14 10:59:15;;;;;;;1.13;0.80;;;25.10;99.90;;;;;;4967595;28;20046;-76
2023/07/14 11:01:56;;;;;;;1.00;1.00;;;25.00;99.90;;;;;;4968031;28;20043;-76
2023/07/14 11:04:32;;;;;;;1.02;1.00;;;25.00;99.90;;;;;;4971509;28;20038;-76
2023/07/14 11:06:58;;;;;;;0.60;0.60;;;24.70;99.90;;;;;;4970415;28;20459;-76
2023/07/14 11:09:24;;;;;;;0.50;0.50;;;24.50;99.90;;;;;;4972383;28;20043;-76
2023/07/14 11:12:22;;;;;;;0.50;0.50;;;24.50;99.90;;;;;;4972623;28;20058;-76
2023/07/14 11:15:11;;;;;;;0.70;0.70;;;24.30;99.90;;;;;;4950418;28;20046;-76
2023/07/14 11:17:48;;;;;;;0.50;0.50;;;24.10;99.90;;;;;;4950666;28;20356;-76
2023/07/14 11:20:29;;;;;;;0.60;0.60;;;24.10;99.90;;;;;;4937520;28;20046;-76
2023/07/14 11:23:13;;;;;;;2.50;1.10;;;24.20;99.90;;;;;;4951761;28;20051;-76
2023/07/14 11:26:05;;;;;;;1.40;1.30;;;24.60;99.90;;;;;;4966079;28;20117;-75
2023/07/14 11:28:36;;;;;;;0.73;0.73;;;24.80;99.90;;;;;;4950073;28;20047;-76
2023/07/14 11:31:32;;;;;;;0.68;0.68;;;24.90;99.90;;;;;;4955217;28;20047;-76
2023/07/14 11:34:29;;;;;;;0.95;0.85;;;25.10;99.90;;;;;;4954734;28;20088;-76
2023/07/14 11:37:03;;;;;;;0.30;0.30;;;25.20;99.90;;;;;;4955106;28;20097;-75
2023/07/14 11:39:39;;;;;;;0.57;0.57;;;25.30;99.90;;;;;;4972293;28;20118;-76
2023/07/14 11:42:35;;;;;;;0.52;0.52;;;25.30;99.90;;;;;;4949831;28;20586;-76
2023/07/14 11:45:15;;;;;;;0.43;0.40;;;25.40;99.90;;;;;;4949245;28;20092;-75
2023/07/14 11:47:42;;;;;;;0.82;0.82;;;25.60;99.90;;;;;;4972763;28;20078;-76
2023/07/14 11:50:16;;;;;;;0.65;0.57;;;25.80;99.90;;;;;;4965656;28;20500;-76
2023/07/14 11:53:05;;;;;;;0.88;0.80;;;25.50;99.90;;;;;;4952180;28;20121;-75
2023/07/14 11:55:33;;;;;;;1.15;1.05;;;25.60;99.90;;;;;;4959270;28;20066;-76
2023/07/14 11:58:20;;;;;;;0.50;0.50;;;25.60;99.90;;;;;;4968794;28;21432;-75
2023/07/14 12:01:03;;;;;;;0.60;0.60;;;25.70;99.90;;;;;;4972512;28;20702;-76
2023/07/14 12:03:52;;;;;;;0.70;0.70;;;25.90;99.90;;;;;;4960996;28;20050;-75
2023/07/14 12:06:23;;;;;;;0.57;0.47;;;26.00;99.90;;;;;;4971917;28;20098;-75
2023/07/14 12:09:11;;;;;;;0.85;0.75;;;25.90;99.90;;;;;;4976023;28;20147;-75
2023/07/14 12:11:39;;;;;;;0.50;0.50;;;26.00;99.90;;;;;;4980928;28;20058;-76
2023/07/14 12:14:25;;;;;;;0.70;0.70;;;26.00;99.90;;;;;;4953545;28;20061;-76
2023/07/14 12:16:51;;;;;;;0.70;0.70;;;26.00;99.90;;;;;;4971941;28;20045;-76
2023/07/14 12:19:21;;;;;;;0.30;0.30;;;26.00;99.90;;;;;;4954552;28;20046;-76
2023/07/14 12:21:59;;;;;;;0.30;0.30;;;25.90;99.90;;;;;;4964643;28;20043;-76
2023/07/14 12:24:31;;;;;;;0.70;0.70;;;25.80;99.90;;;;;;4965579;28;20073;-76
2023/07/14 12:27:16;;;;;;;0.75;0.75;;;25.70;99.90;;;;;;4961650;28;20059;-77
2023/07/14 12:29:43;;;;;;;0.52;0.52;;;25.40;99.90;;;;;;4949678;28;20503;-76
2023/07/14 12:32:19;;;;;;;0.50;0.50;;;25.30;99.90;;;;;;4952268;28;20050;-75
2023/07/14 12:34:46;;;;;;;0.70;0.70;;;25.20;99.90;;;;;;4964821;28;20095;-76
2023/07/14 12:37:18;;;;;;;0.40;0.40;;;25.20;99.90;;;;;;4974790;28;20062;-75
2023/07/14 12:39:50;;;;;;;1.95;1.40;;;25.10;99.90;;;;;;4967148;28;20105;-76
2023/07/14 12:42:16;;;;;;;0.95;0.95;;;25.10;99.90;;;;;;4970445;28;20067;-76
2023/07/14 12:44:43;;;;;;;0.40;0.40;;;25.00;99.90;;;;;;4962375;28;20128;-76
2023/07/14 12:47:17;;;;;;;0.47;0.47;;;25.10;99.90;;;;;;4963488;28;20081;-76
2023/07/14 12:49:49;;;;;;;0.77;0.77;;;24.90;99.90;;;;;;4975238;28;20055;-76
2023/07/14 12:52:28;;;;;;;1.10;0.60;;;24.80;99.90;;;;;;4968869;28;20051;-75
2023/07/14 12:54:59;;;;;;;0.38;0.38;;;24.80;99.90;;;;;;4952730;28;20058;-75
2023/07/14 12:57:25;;;;;;;0.50;0.50;;;24.90;99.90;;;;;;4952706;28;20043;-75
2023/07/14 12:59:52;;;;;;;0.35;0.35;;;25.00;99.90;;;;;;4951792;28;20057;-76
2023/07/14 13:02:18;;;;;;;0.40;0.40;;;24.90;99.90;;;;;;4953369;28;20129;-76
2023/07/14 13:04:45;;;;;;;0.40;0.40;;;25.00;99.90;;;;;;4969217;28;20421;-76
2023/07/14 13:07:21;;;;;;;0.52;0.52;;;25.10;99.90;;;;;;4952937;28;20046;-76